Time;durP1;ratioP1;P1;durP2;ratioP2;P2;SDS_P1;SDS_P2;PMS_P1;PMS_P2;Temp;Humidity;BMP_temperature;BMP_pressure;BME280_temperature;BME280_humidity;BME280_pressure;Samples;Min_cycle;Max_cycle;Signal;HPM_P1;HPM_P2
2022/09/06 00:00:37;;;;;;;0.53;0.20;;;19.70;99.90;;;;;;5075589;28;20205;-80
2022/09/06 00:03:03;;;;;;;0.40;0.40;;;19.70;99.90;;;;;;5077225;28;20272;-79
2022/09/06 00:05:29;;;;;;;0.30;0.30;;;19.60;99.90;;;;;;5075551;28;20317;-79
2022/09/06 00:07:58;;;;;;;0.70;0.40;;;19.60;99.90;;;;;;5078083;28;20725;-79
2022/09/06 00:10:25;;;;;;;0.57;0.57;;;19.50;99.90;;;;;;5073379;28;20276;-79
2022/09/06 00:12:50;;;;;;;0.30;0.30;;;19.30;99.90;;;;;;5074377;28;20184;-79
2022/09/06 00:15:16;;;;;;;1.17;1.07;;;19.30;99.90;;;;;;5075349;28;20180;-79
2022/09/06 00:17:43;;;;;;;0.20;0.20;;;19.20;99.90;;;;;;5074436;28;20275;-79
2022/09/06 00:20:09;;;;;;;0.77;0.50;;;19.10;99.90;;;;;;5075416;28;20257;-79
2022/09/06 00:22:35;;;;;;;0.30;0.30;;;19.10;99.90;;;;;;5074444;28;20189;-79
2022/09/06 00:25:03;;;;;;;0.47;0.43;;;19.10;99.90;;;;;;5073735;28;20291;-79
2022/09/06 00:27:28;;;;;;;0.40;0.40;;;19.10;99.90;;;;;;5076402;28;20256;-79
2022/09/06 00:29:54;;;;;;;0.50;0.50;;;19.00;99.90;;;;;;5074607;28;20280;-79
2022/09/06 00:32:19;;;;;;;0.30;0.30;;;19.10;99.90;;;;;;5075058;28;20203;-79
2022/09/06 00:34:45;;;;;;;0.10;0.10;;;19.20;99.90;;;;;;5074331;28;20269;-79
2022/09/06 00:37:10;;;;;;;0.30;0.30;;;19.30;99.90;;;;;;5075783;28;20207;-79
2022/09/06 00:39:36;;;;;;;0.27;0.27;;;19.60;99.90;;;;;;5076154;28;20262;-79
2022/09/06 00:42:01;;;;;;;0.20;0.20;;;19.80;99.90;;;;;;5073971;28;20219;-79
2022/09/06 00:44:27;;;;;;;0.40;0.40;;;19.90;99.90;;;;;;5075926;28;21204;-79
2022/09/06 00:46:54;;;;;;;0.30;0.30;;;20.00;99.90;;;;;;5072698;28;20177;-79
2022/09/06 00:49:27;;;;;;;0.30;0.30;;;20.00;99.90;;;;;;5074875;28;20201;-79
2022/09/06 00:51:56;;;;;;;0.20;0.20;;;19.90;99.90;;;;;;5074288;28;20201;-79
2022/09/06 00:54:22;;;;;;;0.73;0.37;;;19.90;99.90;;;;;;5073794;28;20203;-79
2022/09/06 00:56:48;;;;;;;0.23;0.23;;;19.90;99.90;;;;;;5075943;28;20541;-79
2022/09/06 00:59:14;;;;;;;0.83;0.83;;;20.00;99.90;;;;;;5074425;28;20684;-79
2022/09/06 01:01:40;;;;;;;0.20;0.20;;;20.10;99.90;;;;;;5075693;28;20208;-79
2022/09/06 01:04:05;;;;;;;0.30;0.30;;;20.20;99.90;;;;;;5072603;28;20205;-79
2022/09/06 01:06:42;;;;;;;0.40;0.30;;;20.30;99.90;;;;;;5075157;28;20196;-79
2022/09/06 01:09:17;;;;;;;0.40;0.40;;;20.40;99.90;;;;;;5073783;28;21220;-79
2022/09/06 01:12:20;;;;;;;0.63;0.40;;;20.40;99.90;;;;;;5072814;28;20290;-79
2022/09/06 01:15:13;;;;;;;0.50;0.50;;;20.40;99.90;;;;;;5073321;28;20187;-78
2022/09/06 01:18:07;;;;;;;0.57;0.30;;;20.40;99.90;;;;;;5073157;28;20184;-79
2022/09/06 01:20:43;;;;;;;0.27;0.27;;;20.40;99.90;;;;;;5076463;28;20232;-79
2022/09/06 01:23:47;;;;;;;0.30;0.30;;;20.30;99.90;;;;;;5073106;28;20262;-79
2022/09/06 01:26:30;;;;;;;0.73;0.50;;;20.40;99.90;;;;;;5074713;28;20646;-79
2022/09/06 01:28:57;;;;;;;0.40;0.40;;;20.30;99.90;;;;;;5072651;28;21349;-79
2022/09/06 01:31:34;;;;;;;0.60;0.60;;;20.20;99.90;;;;;;5072899;28;20309;-79
2022/09/06 01:34:02;;;;;;;0.53;0.53;;;20.00;99.90;;;;;;5082198;28;20180;-79
2022/09/06 01:36:35;;;;;;;0.73;0.60;;;19.70;99.90;;;;;;5074595;28;20230;-79
2022/09/06 01:39:01;;;;;;;1.33;0.77;;;19.60;99.90;;;;;;5073000;28;20591;-82
2022/09/06 01:41:27;;;;;;;0.57;0.57;;;19.60;99.90;;;;;;5074412;28;20204;-82
2022/09/06 01:43:54;;;;;;;0.90;0.77;;;19.60;99.90;;;;;;5073099;28;20200;-79
2022/09/06 01:46:38;;;;;;;0.43;0.43;;;19.60;99.90;;;;;;5073710;28;20177;-79
2022/09/06 01:49:22;;;;;;;0.97;0.87;;;19.80;99.90;;;;;;5072790;28;20188;-79
2022/09/06 01:52:07;;;;;;;0.30;0.30;;;19.90;99.90;;;;;;5071048;28;20197;-79
2022/09/06 01:54:38;;;;;;;0.50;0.50;;;20.10;99.90;;;;;;5075797;28;20208;-79
2022/09/06 01:57:31;;;;;;;0.40;0.40;;;20.30;99.90;;;;;;5073919;28;20176;-79
2022/09/06 02:00:10;;;;;;;0.40;0.40;;;20.50;99.90;;;;;;5073667;28;20500;-79
2022/09/06 02:03:04;;;;;;;0.47;0.30;;;20.70;99.90;;;;;;5073571;28;20191;-79
2022/09/06 02:05:44;;;;;;;3.60;0.90;;;20.90;99.90;;;;;;5080721;28;20285;-79
2022/09/06 02:08:16;;;;;;;0.30;0.30;;;21.10;99.90;;;;;;5072546;28;20310;-79
2022/09/06 02:10:46;;;;;;;0.57;0.40;;;21.20;99.90;;;;;;5073003;28;20216;-79
2022/09/06 02:13:14;;;;;;;0.53;0.53;;;21.30;99.90;;;;;;5071497;28;20607;-80
2022/09/06 02:15:48;;;;;;;0.33;0.33;;;21.30;99.90;;;;;;5072032;28;20559;-79
2022/09/06 02:18:20;;;;;;;0.40;0.40;;;21.30;99.90;;;;;;5070478;28;20550;-79
2022/09/06 02:20:49;;;;;;;0.50;0.50;;;21.30;99.90;;;;;;5072141;28;20744;-79
2022/09/06 02:23:16;;;;;;;0.33;0.33;;;21.30;99.90;;;;;;5072253;28;20257;-79
2022/09/06 02:25:49;;;;;;;0.20;0.20;;;21.20;99.90;;;;;;5073845;28;20635;-79
2022/09/06 02:28:15;;;;;;;0.30;0.30;;;21.10;99.90;;;;;;5071355;28;20180;-79
2022/09/06 02:30:44;;;;;;;0.97;0.40;;;21.10;99.90;;;;;;5072411;28;20236;-79
2022/09/06 02:33:14;;;;;;;0.73;0.73;;;21.00;99.90;;;;;;5071454;28;20184;-79
2022/09/06 02:35:43;;;;;;;0.40;0.40;;;20.90;99.90;;;;;;5073736;28;20193;-80
2022/09/06 02:38:09;;;;;;;0.40;0.40;;;20.70;99.90;;;;;;5071735;28;20238;-79
2022/09/06 02:40:35;;;;;;;0.27;0.27;;;20.60;99.90;;;;;;5079713;28;20215;-79
2022/09/06 02:43:00;;;;;;;0.20;0.20;;;20.60;99.90;;;;;;5071385;28;20184;-79
2022/09/06 02:45:26;;;;;;;0.30;0.30;;;20.40;99.90;;;;;;5072614;28;20291;-79
2022/09/06 02:47:51;;;;;;;1.13;0.43;;;20.30;99.90;;;;;;5070480;28;20716;-79
2022/09/06 02:50:17;;;;;;;0.20;0.20;;;20.30;99.90;;;;;;5072060;28;20219;-79
2022/09/06 02:52:42;;;;;;;0.53;0.53;;;20.30;99.90;;;;;;5073666;28;20189;-79
2022/09/06 02:55:08;;;;;;;0.37;0.27;;;20.30;99.90;;;;;;5072419;28;20562;-79
2022/09/06 02:57:34;;;;;;;0.23;0.23;;;20.30;99.90;;;;;;5072519;28;20188;-79
2022/09/06 02:59:59;;;;;;;0.10;0.10;;;20.30;99.90;;;;;;5072587;28;20191;-79
2022/09/06 03:02:25;;;;;;;0.27;0.27;;;20.20;99.90;;;;;;5074776;28;20188;-79
2022/09/06 03:04:50;;;;;;;0.20;0.20;;;20.10;99.90;;;;;;5071097;28;20204;-79
2022/09/06 03:07:16;;;;;;;0.20;0.20;;;19.90;99.90;;;;;;5073481;28;20215;-79
2022/09/06 03:09:41;;;;;;;0.60;0.40;;;19.60;99.90;;;;;;5073703;28;20186;-79
2022/09/06 03:12:07;;;;;;;0.30;0.30;;;19.40;99.90;;;;;;5072682;28;20208;-79
2022/09/06 03:14:34;;;;;;;0.20;0.20;;;19.40;99.90;;;;;;5070773;28;20180;-79
2022/09/06 03:17:01;;;;;;;0.30;0.30;;;19.30;99.90;;;;;;5070739;28;20192;-79
2022/09/06 03:19:26;;;;;;;0.23;0.23;;;19.30;99.90;;;;;;5072558;28;20192;-79
2022/09/06 03:21:52;;;;;;;0.57;0.40;;;19.20;99.90;;;;;;5072686;28;20209;-79
2022/09/06 03:24:17;;;;;;;0.33;0.33;;;19.00;99.90;;;;;;5072976;28;20209;-79
2022/09/06 03:26:43;;;;;;;0.20;0.20;;;19.00;99.90;;;;;;5073114;28;20247;-79
2022/09/06 03:29:08;;;;;;;0.30;0.30;;;19.10;99.90;;;;;;5073151;28;20557;-79
2022/09/06 03:31:34;;;;;;;0.50;0.50;;;19.20;99.90;;;;;;5080397;28;20604;-80
2022/09/06 03:33:59;;;;;;;0.53;0.43;;;19.30;99.90;;;;;;5073260;28;20212;-79
2022/09/06 03:36:25;;;;;;;0.73;0.57;;;19.40;99.90;;;;;;5078420;28;20205;-79
2022/09/06 03:38:52;;;;;;;0.30;0.30;;;19.40;99.90;;;;;;5071054;28;20183;-79
2022/09/06 03:41:18;;;;;;;0.30;0.30;;;19.30;99.90;;;;;;5072763;28;21151;-79
2022/09/06 03:43:44;;;;;;;0.77;0.47;;;19.50;99.90;;;;;;5076309;28;20203;-79
2022/09/06 03:46:09;;;;;;;0.20;0.20;;;19.60;99.90;;;;;;5072848;28;20181;-79
2022/09/06 03:48:35;;;;;;;0.30;0.30;;;19.50;99.90;;;;;;5076020;28;20201;-80
2022/09/06 03:51:00;;;;;;;0.30;0.30;;;19.60;99.90;;;;;;5074729;28;20208;-80
2022/09/06 03:53:27;;;;;;;0.30;0.30;;;19.60;99.90;;;;;;5075662;28;20184;-80
2022/09/06 03:55:54;;;;;;;0.30;0.30;;;19.60;99.90;;;;;;5072595;28;20314;-79
2022/09/06 03:58:22;;;;;;;0.20;0.20;;;19.70;99.90;;;;;;5076175;28;20269;-79
2022/09/06 04:00:48;;;;;;;0.20;0.20;;;19.80;99.90;;;;;;5074089;28;20759;-79
2022/09/06 04:03:14;;;;;;;0.20;0.20;;;19.90;99.90;;;;;;5076968;28;20177;-79
2022/09/06 04:05:43;;;;;;;0.57;0.37;;;20.00;99.90;;;;;;5074803;28;20216;-79
2022/09/06 04:08:08;;;;;;;0.50;0.50;;;20.10;99.90;;;;;;5073001;28;20181;-80
2022/09/06 04:10:34;;;;;;;0.13;0.13;;;20.00;99.90;;;;;;5074807;28;20192;-79
2022/09/06 04:12:59;;;;;;;0.20;0.20;;;20.00;99.90;;;;;;5074759;28;20192;-79
2022/09/06 04:15:25;;;;;;;0.20;0.20;;;19.90;99.90;;;;;;5075240;28;20188;-79
2022/09/06 04:17:50;;;;;;;0.37;0.37;;;19.90;99.90;;;;;;5072046;28;20184;-78
2022/09/06 04:20:16;;;;;;;0.40;0.40;;;19.80;99.90;;;;;;5073911;28;20208;-79
2022/09/06 04:22:42;;;;;;;0.10;0.10;;;19.60;99.90;;;;;;5074457;28;20226;-79
2022/09/06 04:25:09;;;;;;;0.20;0.20;;;19.60;99.90;;;;;;5074055;28;20196;-79
2022/09/06 04:27:34;;;;;;;0.20;0.20;;;19.50;99.90;;;;;;5074360;28;20181;-79
2022/09/06 04:30:00;;;;;;;0.93;0.43;;;19.60;99.90;;;;;;5073475;28;20180;-79
2022/09/06 04:32:25;;;;;;;3.70;0.40;;;19.60;99.90;;;;;;5076104;28;20189;-79
2022/09/06 04:34:51;;;;;;;0.30;0.30;;;19.60;99.90;;;;;;5072077;28;20638;-79
2022/09/06 04:37:18;;;;;;;0.20;0.20;;;19.60;99.90;;;;;;5074788;28;20185;-79
2022/09/06 04:39:47;;;;;;;0.30;0.30;;;19.60;99.90;;;;;;5073401;28;20180;-79
2022/09/06 04:42:13;;;;;;;0.33;0.33;;;19.50;99.90;;;;;;5073164;28;20575;-79
2022/09/06 04:44:39;;;;;;;0.20;0.20;;;19.50;99.90;;;;;;5075882;28;20208;-79
2022/09/06 04:47:14;;;;;;;0.27;0.27;;;19.60;99.90;;;;;;5074577;28;20185;-79
2022/09/06 04:49:41;;;;;;;0.33;0.20;;;19.50;99.90;;;;;;5073048;28;20665;-79
2022/09/06 04:52:06;;;;;;;0.30;0.30;;;19.50;99.90;;;;;;5072458;28;20196;-80
2022/09/06 04:54:32;;;;;;;0.20;0.20;;;19.50;99.90;;;;;;5074804;28;20207;-80
2022/09/06 04:56:57;;;;;;;0.30;0.30;;;19.50;99.90;;;;;;5072105;28;20185;-80
2022/09/06 04:59:23;;;;;;;0.20;0.20;;;19.50;99.90;;;;;;5073661;28;20189;-80
2022/09/06 05:01:49;;;;;;;0.40;0.40;;;19.40;99.90;;;;;;5073288;28;20230;-80
2022/09/06 05:04:14;;;;;;;1.37;0.80;;;19.50;99.90;;;;;;5074105;28;20217;-80
2022/09/06 05:06:40;;;;;;;1.50;1.23;;;19.20;99.90;;;;;;5073219;28;20172;-80
2022/09/06 05:09:06;;;;;;;0.20;0.20;;;19.10;99.90;;;;;;5074313;28;20168;-79
2022/09/06 05:11:32;;;;;;;0.20;0.20;;;19.20;99.90;;;;;;5072456;28;20192;-80
2022/09/06 05:13:57;;;;;;;0.30;0.30;;;19.20;99.90;;;;;;5074282;28;20177;-80
2022/09/06 05:16:23;;;;;;;0.20;0.20;;;19.30;99.90;;;;;;5072712;28;20193;-79
2022/09/06 05:18:48;;;;;;;0.50;0.50;;;19.30;99.90;;;;;;5074554;28;20180;-79
2022/09/06 05:21:14;;;;;;;1.50;0.50;;;19.30;99.90;;;;;;5072796;28;21112;-80
2022/09/06 05:23:40;;;;;;;0.20;0.20;;;19.40;99.90;;;;;;5073988;28;20216;-80
2022/09/06 05:26:05;;;;;;;0.53;0.53;;;19.40;99.90;;;;;;5073682;28;20184;-80
2022/09/06 05:28:31;;;;;;;0.50;0.30;;;19.50;99.90;;;;;;5073994;28;20173;-81
2022/09/06 05:31:07;;;;;;;1.00;0.70;;;19.50;99.90;;;;;;5073929;28;20223;-81
2022/09/06 05:33:33;;;;;;;0.40;0.40;;;19.40;99.90;;;;;;5073290;28;20186;-81
2022/09/06 05:35:58;;;;;;;0.30;0.30;;;19.20;99.90;;;;;;5071537;28;20571;-81
2022/09/06 05:38:24;;;;;;;0.50;0.50;;;19.00;99.90;;;;;;5069785;28;20176;-81
2022/09/06 05:40:50;;;;;;;0.50;0.50;;;18.90;99.90;;;;;;5073827;28;20734;-81
2022/09/06 05:43:15;;;;;;;0.50;0.50;;;18.90;99.90;;;;;;5073672;28;20409;-81
2022/09/06 05:45:41;;;;;;;0.30;0.30;;;18.80;99.90;;;;;;5071976;28;20220;-79
2022/09/06 05:48:07;;;;;;;0.37;0.37;;;18.80;99.90;;;;;;5068808;28;20181;-79
2022/09/06 05:50:33;;;;;;;0.53;0.53;;;18.90;99.90;;;;;;5079167;28;20220;-79
2022/09/06 05:52:58;;;;;;;0.60;0.60;;;18.90;99.90;;;;;;5074828;28;20192;-80
2022/09/06 05:55:24;;;;;;;0.40;0.40;;;18.90;99.90;;;;;;5071153;28;20687;-79
2022/09/06 05:57:50;;;;;;;0.43;0.30;;;18.90;99.90;;;;;;5071220;28;20205;-79
2022/09/06 06:00:16;;;;;;;0.43;0.40;;;18.80;99.90;;;;;;5071725;28;20216;-78
2022/09/06 06:02:41;;;;;;;0.10;0.10;;;18.90;99.90;;;;;;5073138;28;20215;-79
2022/09/06 06:05:07;;;;;;;0.33;0.33;;;19.00;99.90;;;;;;5072808;28;20959;-79
2022/09/06 06:07:33;;;;;;;0.30;0.30;;;19.20;99.90;;;;;;5070919;28;20204;-79
2022/09/06 06:09:59;;;;;;;0.40;0.40;;;19.30;99.90;;;;;;5071952;28;20218;-79
2022/09/06 06:12:24;;;;;;;0.30;0.30;;;19.40;99.90;;;;;;5073546;28;20185;-79
2022/09/06 06:14:50;;;;;;;0.40;0.40;;;19.50;99.90;;;;;;5071054;28;20218;-78
2022/09/06 06:17:15;;;;;;;0.20;0.20;;;19.50;99.90;;;;;;5071781;28;20308;-79
2022/09/06 06:19:41;;;;;;;0.53;0.53;;;19.60;99.90;;;;;;5070751;28;20208;-79
2022/09/06 06:22:06;;;;;;;0.20;0.20;;;19.80;99.90;;;;;;5070424;28;20421;-79
2022/09/06 06:24:32;;;;;;;0.50;0.50;;;19.80;99.90;;;;;;5074112;28;21087;-79
2022/09/06 06:26:57;;;;;;;0.40;0.30;;;20.10;99.90;;;;;;5071639;28;20257;-79
2022/09/06 06:29:24;;;;;;;0.20;0.20;;;20.10;99.90;;;;;;5070746;28;20180;-79
2022/09/06 06:31:49;;;;;;;0.27;0.27;;;20.20;99.90;;;;;;5072851;28;20689;-79
2022/09/06 06:34:17;;;;;;;0.47;0.40;;;20.50;99.90;;;;;;5071257;28;20249;-78
2022/09/06 06:36:43;;;;;;;0.20;0.20;;;20.70;99.90;;;;;;5068448;28;20206;-79
2022/09/06 06:39:08;;;;;;;0.17;0.17;;;20.70;99.90;;;;;;5072208;28;20182;-79
2022/09/06 06:41:34;;;;;;;0.23;0.23;;;20.70;99.90;;;;;;5067777;28;20215;-79
2022/09/06 06:44:02;;;;;;;0.10;0.10;;;20.80;99.90;;;;;;5069823;28;20200;-80
2022/09/06 06:46:30;;;;;;;0.20;0.20;;;20.80;99.90;;;;;;5071866;28;20184;-80
2022/09/06 06:48:56;;;;;;;0.50;0.50;;;20.70;99.90;;;;;;5072756;28;20227;-79
2022/09/06 06:51:27;;;;;;;0.23;0.23;;;20.80;99.90;;;;;;5072586;28;20227;-79
2022/09/06 06:53:53;;;;;;;0.20;0.20;;;20.90;99.90;;;;;;5071500;28;20267;-79
2022/09/06 06:56:27;;;;;;;0.20;0.20;;;20.90;99.90;;;;;;5068222;28;20625;-79
2022/09/06 06:58:56;;;;;;;0.20;0.20;;;21.10;99.90;;;;;;5068537;28;20183;-79
2022/09/06 07:01:22;;;;;;;0.50;0.50;;;21.20;99.90;;;;;;5069626;28;20719;-80
2022/09/06 07:03:48;;;;;;;1.07;0.40;;;21.50;99.90;;;;;;5070110;28;20204;-80
2022/09/06 07:06:15;;;;;;;0.50;0.50;;;21.20;99.90;;;;;;5071523;28;20207;-79
2022/09/06 07:08:41;;;;;;;0.30;0.30;;;21.00;99.90;;;;;;5073383;28;20185;-79
2022/09/06 07:11:08;;;;;;;0.30;0.30;;;21.00;99.90;;;;;;5076688;28;20197;-79
2022/09/06 07:13:34;;;;;;;0.40;0.40;;;21.00;99.90;;;;;;5073970;28;20549;-79
2022/09/06 07:16:14;;;;;;;0.30;0.30;;;21.10;99.90;;;;;;5074962;28;20172;-79
2022/09/06 07:18:44;;;;;;;0.30;0.30;;;21.40;99.90;;;;;;5077817;28;20168;-79
2022/09/06 07:21:11;;;;;;;0.50;0.50;;;21.40;99.90;;;;;;5083874;28;20207;-80
2022/09/06 07:23:36;;;;;;;0.30;0.30;;;21.40;99.90;;;;;;5076775;28;20181;-79
2022/09/06 07:26:02;;;;;;;0.40;0.40;;;21.40;99.90;;;;;;5075265;28;20187;-80
2022/09/06 07:28:28;;;;;;;0.43;0.43;;;21.20;99.90;;;;;;5077401;28;20267;-79
2022/09/06 07:30:54;;;;;;;1.60;0.50;;;21.40;99.90;;;;;;5075863;28;20208;-79
2022/09/06 07:33:20;;;;;;;0.33;0.33;;;21.50;99.90;;;;;;5077158;28;20335;-79
2022/09/06 07:36:00;;;;;;;0.30;0.30;;;21.60;99.90;;;;;;5073616;28;20721;-79
2022/09/06 07:38:29;;;;;;;0.30;0.30;;;21.90;99.90;;;;;;5074405;28;20226;-79
2022/09/06 07:40:57;;;;;;;0.30;0.30;;;22.20;99.90;;;;;;5073416;28;20702;-79
2022/09/06 07:43:24;;;;;;;0.43;0.43;;;22.10;99.90;;;;;;5082619;28;20195;-79
2022/09/06 07:45:58;;;;;;;0.33;0.33;;;22.20;99.90;;;;;;5078443;28;20200;-79
2022/09/06 07:48:23;;;;;;;0.20;0.20;;;22.60;99.90;;;;;;5077208;28;20204;-79
2022/09/06 07:50:49;;;;;;;0.33;0.33;;;23.00;99.90;;;;;;5077005;28;20223;-79
2022/09/06 07:53:15;;;;;;;0.30;0.30;;;23.30;99.90;;;;;;5075083;28;20177;-79
2022/09/06 07:55:40;;;;;;;0.20;0.20;;;23.30;99.90;;;;;;5075506;28;20185;-80
2022/09/06 07:58:06;;;;;;;0.50;0.50;;;23.50;99.90;;;;;;5074194;28;20177;-79
2022/09/06 08:00:31;;;;;;;0.40;0.30;;;23.80;99.90;;;;;;5075468;28;20208;-79
2022/09/06 08:02:57;;;;;;;0.40;0.40;;;23.90;99.90;;;;;;5074790;28;20180;-80
2022/09/06 08:05:22;;;;;;;0.50;0.50;;;23.80;99.90;;;;;;5073766;28;20222;-79
2022/09/06 08:07:48;;;;;;;0.40;0.40;;;24.20;99.90;;;;;;5075246;28;20652;-80
2022/09/06 08:10:13;;;;;;;0.30;0.30;;;24.40;99.90;;;;;;5074249;28;20201;-80
2022/09/06 08:12:39;;;;;;;0.57;0.53;;;24.10;99.90;;;;;;5076572;28;20176;-79
2022/09/06 08:15:05;;;;;;;0.40;0.40;;;24.40;99.90;;;;;;5075219;28;20684;-79
2022/09/06 08:17:34;;;;;;;0.50;0.43;;;24.60;99.90;;;;;;5073592;28;20661;-80
2022/09/06 08:20:01;;;;;;;0.33;0.33;;;24.80;99.90;;;;;;5076324;28;20181;-79
2022/09/06 08:22:26;;;;;;;0.27;0.27;;;24.90;99.90;;;;;;5075411;28;20287;-80
2022/09/06 08:24:52;;;;;;;0.20;0.20;;;24.90;99.90;;;;;;5072515;28;20761;-79
2022/09/06 08:27:17;;;;;;;0.70;0.70;;;25.20;99.90;;;;;;5075505;28;20169;-80
2022/09/06 08:29:42;;;;;;;0.47;0.47;;;25.50;99.90;;;;;;5073451;28;20234;-79
2022/09/06 08:32:09;;;;;;;0.70;0.40;;;25.40;99.90;;;;;;5073315;28;20203;-80
2022/09/06 08:34:35;;;;;;;0.70;0.70;;;25.60;99.90;;;;;;5073532;28;20195;-79
2022/09/06 08:37:00;;;;;;;1.30;1.23;;;25.80;99.90;;;;;;5073524;28;20181;-79
2022/09/06 08:39:26;;;;;;;0.60;0.60;;;25.50;99.90;;;;;;5073477;28;20267;-80
2022/09/06 08:42:04;;;;;;;0.40;0.40;;;25.70;99.90;;;;;;5073678;28;20380;-80
2022/09/06 08:44:38;;;;;;;0.60;0.60;;;25.80;99.90;;;;;;5074836;28;20195;-79
2022/09/06 08:47:06;;;;;;;0.20;0.20;;;25.90;99.90;;;;;;5073776;28;20181;-80
2022/09/06 08:49:36;;;;;;;0.33;0.30;;;25.90;99.90;;;;;;5076247;28;20189;-80
2022/09/06 08:52:38;;;;;;;0.30;0.30;;;25.90;99.90;;;;;;5074860;28;20570;-79
2022/09/06 08:55:54;;;;;;;0.40;0.40;;;25.90;99.90;;;;;;5075671;28;20264;-79
2022/09/06 08:58:25;;;;;;;0.23;0.23;;;25.70;99.90;;;;;;5041333;28;20200;-79
2022/09/06 09:00:59;;;;;;;0.47;0.37;;;25.90;99.90;;;;;;5074248;28;20740;-80
2022/09/06 09:03:35;;;;;;;0.43;0.43;;;25.80;99.90;;;;;;5075674;28;20184;-79
2022/09/06 09:06:04;;;;;;;0.30;0.30;;;25.80;99.90;;;;;;5076244;28;20179;-80
2022/09/06 09:09:05;;;;;;;1.40;1.03;;;26.10;99.90;;;;;;5073411;28;20704;-79
2022/09/06 09:11:35;;;;;;;0.40;0.40;;;26.20;99.90;;;;;;5074936;28;20299;-79
2022/09/06 09:14:27;;;;;;;0.70;0.50;;;26.20;99.90;;;;;;5074726;28;20190;-79
2022/09/06 09:16:59;;;;;;;0.20;0.20;;;26.30;99.90;;;;;;5076387;28;20176;-79
2022/09/06 09:19:24;;;;;;;1.67;0.30;;;26.40;99.90;;;;;;5073454;28;20546;-79
2022/09/06 09:21:50;;;;;;;0.30;0.30;;;26.60;99.90;;;;;;5073624;28;20286;-79
2022/09/06 09:24:15;;;;;;;0.30;0.30;;;26.60;99.90;;;;;;5075518;28;20204;-80
2022/09/06 09:26:54;;;;;;;0.37;0.37;;;26.50;99.90;;;;;;5073979;28;20271;-80
2022/09/06 09:29:19;;;;;;;0.50;0.40;;;26.50;99.90;;;;;;5072720;28;20222;-80
2022/09/06 09:31:48;;;;;;;0.57;0.57;;;26.60;99.90;;;;;;5072027;28;20291;-80
2022/09/06 09:34:35;;;;;;;0.23;0.23;;;26.50;99.90;;;;;;5073904;28;20237;-79
2022/09/06 09:37:22;;;;;;;0.47;0.47;;;26.70;99.90;;;;;;5075927;28;20291;-80
2022/09/06 09:39:49;;;;;;;0.30;0.30;;;26.80;99.90;;;;;;5075928;28;20185;-79
2022/09/06 09:42:31;;;;;;;0.30;0.30;;;26.90;99.90;;;;;;5072712;28;20719;-79
2022/09/06 09:44:57;;;;;;;0.30;0.30;;;27.10;99.90;;;;;;5072885;28;20237;-80
2022/09/06 09:47:28;;;;;;;0.37;0.37;;;27.20;99.90;;;;;;5075149;28;20212;-79
2022/09/06 09:49:55;;;;;;;0.33;0.33;;;27.30;99.90;;;;;;5073206;28;20193;-79
2022/09/06 09:52:31;;;;;;;0.43;0.43;;;27.30;99.90;;;;;;5073540;28;20638;-80
2022/09/06 09:55:03;;;;;;;0.60;0.40;;;27.50;99.90;;;;;;5074600;28;20202;-79
2022/09/06 09:57:41;;;;;;;0.40;0.40;;;27.60;99.90;;;;;;5072414;28;20188;-79
2022/09/06 10:00:11;;;;;;;0.37;0.30;;;27.60;99.90;;;;;;5072480;28;20176;-80
2022/09/06 10:02:41;;;;;;;0.40;0.40;;;27.70;99.90;;;;;;5073082;28;20183;-80
2022/09/06 10:05:16;;;;;;;0.20;0.20;;;27.60;99.90;;;;;;5073159;28;20296;-80
2022/09/06 10:07:48;;;;;;;0.70;0.70;;;27.80;99.90;;;;;;5072965;28;20184;-80
2022/09/06 10:10:20;;;;;;;0.23;0.23;;;28.00;99.90;;;;;;5074456;28;20193;-80
2022/09/06 10:12:46;;;;;;;1.70;0.50;;;28.00;99.90;;;;;;5072201;28;20169;-80
2022/09/06 10:15:32;;;;;;;0.93;0.57;;;27.40;99.90;;;;;;5072830;28;20258;-79
2022/09/06 10:17:57;;;;;;;0.25;0.25;;;27.50;99.90;;;;;;5075797;28;20189;-79
2022/09/06 10:20:33;;;;;;;0.30;0.30;;;27.70;99.90;;;;;;5074661;28;20270;-80
2022/09/06 10:23:03;;;;;;;0.30;0.30;;;28.00;99.90;;;;;;5072023;28;20175;-80
2022/09/06 10:25:46;;;;;;;0.90;0.50;;;28.20;99.90;;;;;;5079776;28;20719;-79
2022/09/06 10:28:44;;;;;;;0.87;0.60;;;28.30;99.90;;;;;;5070966;28;20219;-79
2022/09/06 10:31:38;;;;;;;0.57;0.30;;;28.20;99.90;;;;;;5072043;28;20279;-80
2022/09/06 10:34:30;;;;;;;0.30;0.30;;;28.40;99.90;;;;;;5070472;28;20907;-80
2022/09/06 10:37:14;;;;;;;0.50;0.50;;;28.40;99.90;;;;;;5088938;28;20291;-79
2022/09/06 10:39:57;;;;;;;0.20;0.20;;;28.40;99.90;;;;;;5072136;28;20188;-80
2022/09/06 10:42:44;;;;;;;0.63;0.63;;;28.50;99.90;;;;;;5073624;28;20184;-79
2022/09/06 10:45:33;;;;;;;0.75;0.30;;;28.80;99.90;;;;;;5069979;28;20204;-79
2022/09/06 10:48:08;;;;;;;0.35;0.35;;;28.90;99.90;;;;;;5072232;28;20474;-79
2022/09/06 10:50:47;;;;;;;0.50;0.50;;;28.60;99.90;;;;;;5072153;28;20216;-79
2022/09/06 10:53:25;;;;;;;0.43;0.38;;;28.70;99.90;;;;;;5071514;28;20225;-80
2022/09/06 10:56:05;;;;;;;0.50;0.50;;;28.90;99.90;;;;;;5073037;28;20173;-79
2022/09/06 10:58:38;;;;;;;0.30;0.30;;;28.90;99.90;;;;;;5074472;28;20264;-79
2022/09/06 11:01:08;;;;;;;0.80;0.50;;;29.00;99.90;;;;;;5074714;28;20694;-79
2022/09/06 11:03:39;;;;;;;0.30;0.30;;;29.00;99.90;;;;;;5072349;28;20191;-80
2022/09/06 11:06:09;;;;;;;0.88;0.75;;;29.20;99.90;;;;;;5071811;28;20172;-79
2022/09/06 11:08:45;;;;;;;0.30;0.30;;;29.20;99.90;;;;;;5072378;28;20272;-80
2022/09/06 11:11:19;;;;;;;0.30;0.30;;;29.30;99.90;;;;;;5075054;28;20927;-80
2022/09/06 11:13:46;;;;;;;1.38;0.40;;;29.50;99.90;;;;;;5072123;28;20172;-80
2022/09/06 11:16:25;;;;;;;0.50;0.50;;;29.60;99.90;;;;;;5074859;28;20187;-80
2022/09/06 11:19:26;;;;;;;0.17;0.17;;;29.70;99.90;;;;;;5071273;28;20634;-80
2022/09/06 11:22:27;;;;;;;0.30;0.30;;;29.70;99.90;;;;;;5053850;28;20216;-79
2022/09/06 11:25:18;;;;;;;1.33;0.70;;;29.80;99.90;;;;;;5071574;28;20432;-80
2022/09/06 11:27:50;;;;;;;0.40;0.40;;;29.70;99.90;;;;;;5074741;28;21008;-80
2022/09/06 11:30:17;;;;;;;0.30;0.30;;;29.80;99.90;;;;;;5073123;28;20200;-80
2022/09/06 11:32:49;;;;;;;0.80;0.43;;;29.30;99.90;;;;;;5073935;28;20209;-80
2022/09/06 11:35:26;;;;;;;0.40;0.40;;;29.60;99.90;;;;;;5072742;28;20177;-80
2022/09/06 11:38:00;;;;;;;1.08;0.50;;;29.90;99.90;;;;;;5074321;28;20664;-80
2022/09/06 11:40:40;;;;;;;0.70;0.70;;;30.10;99.90;;;;;;5077541;28;20215;-81
2022/09/06 11:43:11;;;;;;;0.45;0.45;;;30.20;99.90;;;;;;5075800;28;20493;-80
2022/09/06 11:45:41;;;;;;;0.65;0.65;;;30.00;99.90;;;;;;5075978;28;20234;-81
2022/09/06 11:48:22;;;;;;;0.35;0.30;;;30.00;99.90;;;;;;5073005;28;20212;-81
2022/09/06 11:50:53;;;;;;;0.30;0.30;;;30.10;99.90;;;;;;5074556;28;20474;-80
2022/09/06 11:53:23;;;;;;;0.40;0.40;;;29.50;99.90;;;;;;5077973;28;20255;-80
2022/09/06 11:55:58;;;;;;;0.50;0.50;;;29.80;99.90;;;;;;5078990;28;20531;-81
2022/09/06 11:58:44;;;;;;;0.73;0.55;;;30.10;99.90;;;;;;5077048;28;20183;-81
2022/09/06 12:01:12;;;;;;;0.50;0.50;;;30.30;99.90;;;;;;5078825;28;20529;-81
2022/09/06 12:03:47;;;;;;;0.30;0.30;;;30.50;99.90;;;;;;5077540;28;20666;-80
2022/09/06 12:06:21;;;;;;;0.40;0.40;;;30.60;99.90;;;;;;5077259;28;20181;-80
2022/09/06 12:08:49;;;;;;;0.75;0.75;;;30.80;99.90;;;;;;5075043;28;20184;-80
2022/09/06 12:11:52;;;;;;;0.50;0.50;;;30.60;99.90;;;;;;5078411;28;20231;-81
2022/09/06 12:14:39;;;;;;;0.32;0.30;;;30.70;99.90;;;;;;5079052;28;20192;-80
2022/09/06 12:17:06;;;;;;;0.47;0.38;;;30.70;99.90;;;;;;5080685;28;20204;-80
2022/09/06 12:19:52;;;;;;;0.25;0.25;;;30.60;99.90;;;;;;5080001;28;20676;-80
2022/09/06 12:22:26;;;;;;;0.30;0.30;;;30.80;99.90;;;;;;5077627;28;20197;-80
2022/09/06 12:25:22;;;;;;;0.77;0.60;;;30.80;99.90;;;;;;5076385;28;20199;-81
2022/09/06 12:28:03;;;;;;;0.52;0.52;;;30.80;99.90;;;;;;5077689;28;20646;-80
2022/09/06 12:30:40;;;;;;;0.45;0.45;;;30.70;99.90;;;;;;5077181;28;20212;-81
2022/09/06 12:33:31;;;;;;;0.30;0.30;;;30.90;99.90;;;;;;5077730;28;20168;-80
2022/09/06 12:36:16;;;;;;;0.43;0.43;;;31.10;99.90;;;;;;5077262;28;20654;-81
2022/09/06 12:38:57;;;;;;;0.47;0.47;;;31.10;99.90;;;;;;5075308;28;21220;-80
2022/09/06 12:41:25;;;;;;;1.35;0.55;;;31.10;99.90;;;;;;5078541;28;20224;-80
2022/09/06 12:43:51;;;;;;;0.43;0.43;;;31.10;99.90;;;;;;5079755;28;20810;-81
2022/09/06 12:46:17;;;;;;;0.63;0.50;;;30.50;99.90;;;;;;5077454;28;20630;-80
2022/09/06 12:49:03;;;;;;;0.43;0.43;;;30.70;99.90;;;;;;5078658;28;20270;-80
2022/09/06 12:51:29;;;;;;;0.30;0.30;;;30.80;99.90;;;;;;5077704;28;20204;-80
2022/09/06 12:54:04;;;;;;;1.58;0.70;;;31.10;99.90;;;;;;5076488;28;20188;-80
2022/09/06 12:56:33;;;;;;;0.40;0.40;;;31.00;99.90;;;;;;5076781;28;20319;-81
2022/09/06 12:59:15;;;;;;;0.30;0.30;;;30.90;99.90;;;;;;5076748;28;20180;-80
2022/09/06 13:01:50;;;;;;;0.32;0.32;;;31.20;99.90;;;;;;5077563;28;20277;-80
2022/09/06 13:04:35;;;;;;;4.85;0.45;;;31.20;99.90;;;;;;5075855;28;20298;-80
2022/09/06 13:07:02;;;;;;;0.43;0.43;;;31.30;99.90;;;;;;5075554;28;20189;-80